WOODHAVEN RUN THROUGH THE PARK

back to results

Nov. 5, 2000

WOODHAVEN RUN THROUGH THE PARK
WOODHAVEN, MICHIGAN


Female Winners

Place Name City Age Overall Time Pace
1 Janet Paga-Shapic Naples FL 41 21 27:17.0 6:49/M


Women 19 and Under

Place Name City Age Overall Time Pace
1 Emily Morris Monroe MI 16 86 34:25.0 8:36/M
2 Amy Byron Monroe MI 16 92 34:40.9 8:40/M
3 Marla Hardin Riverview MI 16 101 35:49.2 8:57/M
4 Gabrielle Peer Woodhaven MI 15 119 37:23.5 9:21/M
5 Karlye Pesci Southgate MI 16 143 40:46.7 10:12/M
6 Jennifer Rosenick Riverview MI 16 161 51:47.7 12:57/M
7 Chandra Hazey Riverview MI 16 162 51:49.3 12:57/M


Women 20 to 29

Place Name City Age Overall Time Pace
1 Tracey Cohen Clarkston MI 29 45 29:49.9 7:27/M
2 Susan Cruz Westland MI 26 51 31:11.0 7:48/M
3 Vandna Karamchandani Grosse Ile MI 21 73 33:14.3 8:19/M
4 Deena Dettloff Utica MI 27 82 34:00.8 8:30/M
5 Valerie Powers Keego Harbor MI 28 102 35:50.6 8:58/M
6 Susan Armiak Grosse Ile MI 28 104 35:53.0 8:58/M
7 Marialaina Pomponio New Boston MI 29 111 36:28.7 9:07/M
8 Shannon Kelly Flat Rock MI 23 127 38:04.8 9:31/M
9 Susan Weycker Canton MI 24 128 38:05.3 9:31/M
10 Kristin Jurewicz Ann Arbor MI 22 147 42:25.1 10:36/M
11 Elena Gianfermi Ann Arbor MI 22 148 42:25.6 10:36/M
12 Patrice Welch Northville MI 28 153 44:06.7 11:02/M
13 Jessica Boomer Traverse City MI 24 155 44:52.5 11:13/M
14 Vanessa Morton Woodhaven MI 27 163 52:21.4 13:05/M


Women 30 to 34

Place Name City Age Overall Time Pace
1 Jody Ariss Fenton MI 31 49 30:17.0 7:34/M
2 Jayne Service Lasalle MI 33 60 32:12.7 8:03/M
3 Debbie Wilson Allen Park MI 32 67 32:34.5 8:09/M
4 Lisa Fast Brownstown Twp MI 33 80 33:54.6 8:29/M
5 Donna Berna Gibraltar MI 32 99 35:32.3 8:53/M
6 Becky Weaver Monroe MI 31 108 36:07.9 9:02/M
7 Tammy Liedel Flat Rock MI 31 113 36:43.4 9:11/M
8 Deana Laura Ann Arbor MI 33 138 39:41.3 9:55/M
9 Diane Huch Woodhaven MI 31 146 42:16.9 10:34/M
10 Komal Zemmin Allen Park MI 30 150 42:35.4 10:39/M
11 Liz Francis Flat Rock MI 33 156 45:51.1 11:28/M


Women 35 to 39

Place Name City Age Overall Time Pace
1 Karen Breslin Woodhaven MI 39 36 29:01.4 7:15/M
2 Penny Dunn Trenton MI 37 69 32:47.5 8:12/M
3 Terri Przybylo Flat Rock MI 37 94 34:59.6 8:45/M
4 Amy King Grosse Ile MI 35 100 35:40.1 8:55/M
5 Renee Pesci Southgate MI 39 110 36:25.3 9:06/M
6 Eunice Moss Taylor MI 39 130 38:23.4 9:36/M
7 Laurie Weber Trenton MI 38 137 39:40.9 9:55/M
8 Emily Self Woodhaven MI 36 145 41:20.7 10:20/M
9 Pamela Martin Wyandotte MI 38 151 43:17.9 10:49/M


Women 40 to 44

Place Name City Age Overall Time Pace
1 Frances Buttigieg Woodhaven MI 43 48 30:11.1 7:33/M
2 Victoria DesJardins Grosse Ile MI 42 50 30:34.0 7:39/M
3 Pamela Keller Woodhaven MI 42 56 31:59.0 8:00/M
4 Josie Deladurantaye Riverview MI 44 115 36:46.6 9:12/M
5 Elaine Miller Taylor MI 40 131 38:44.4 9:41/M
6 Sheri Fricke Wyandotte MI 40 136 39:37.5 9:54/M
7 Jean Fletcher Grosse Ile MI 41 140 39:42.1 9:56/M
8 Kathleen Greene Southgate MI 42 149 42:27.3 10:37/M
9 Ann Loewe Brownstown MI 42 152 43:35.3 10:54/M


Women 45 to 49

Place Name City Age Overall Time Pace
1 Eve Howell Riverview MI 46 70 32:53.9 8:13/M
2 Lillian Pandza Canton MI 49 75 33:21.8 8:20/M
3 Mary Britt Grosse Ile MI 45 83 34:15.9 8:34/M
4 Corky Millen Trenton MI 45 87 34:25.7 8:36/M
5 Brenda Murphy Taylor MI 45 95 35:07.1 8:47/M
6 Barb Olson Kalamazoo MI 47 106 35:58.5 9:00/M
7 Debbie Romo Trenton MI 46 120 37:24.9 9:21/M
8 Carolynn Wyson Riverview MI 46 122 37:37.1 9:24/M
9 Catherine Riggs Belleville MI 45 132 38:56.8 9:44/M
10 Marcy Johnson Flat Rock MI 47 157 46:53.4 11:43/M


Women 50 to 54

Place Name City Age Overall Time Pace
1 Cecilia Brzys South Lyon MI 51 103 35:51.4 8:58/M
2 Christina Scholz Southgate MI 52 116 36:59.0 9:15/M
3 Karen Hill Grosse Ile MI 54 124 37:51.4 9:28/M
4 Diane Dunn Walled Lake MI 54 125 37:55.6 9:29/M
5 Venda Roberson Southfield MI 52 160 48:35.4 12:09/M


Women 55 to 59

Place Name City Age Overall Time Pace
1 Mary Steinhauser Lasalle MI 55 105 35:56.5 8:59/M
2 Shirley Torrance Saline MI 55 135 39:24.2 9:51/M
3 Chris Hopgood Taylor MI 58 139 39:41.7 9:55/M


Women 60 and Over

Place Name City Age Ove��� Time Pace
1 Ellen Nitz Milford MI 60 46 30:00.2 7:30/M


Male Winners

Place Name City Age Overall Time Pace
1 Timothy Budzyn Ypsilanti MI 24 1 20:19.4 5:05/M


Men 19 and Under

Place Name City Age Overall Time Pace
1 Leif Gilsdorf Maumee OH 16 7 25:03.0 6:16/M
2 Michael Pierfelice Allen Park MI 17 12 25:53.2 6:28/M
3 Eric DuChene Woodhaven MI 16 13 25:56.8 6:29/M
4 Neil LaVoie Middleville MI 12 15 26:08.6 6:32/M
5 Peter Crowder Clinton MI 15 19 27:14.4 6:49/M
6 Kevin Siegwald 10 39 29:19.3 7:20/M
7 Joseph Rendzikowski Woodhaven MI 14 42 29:39.0 7:25/M
8 Jason Harris Woodhaven MI 18 53 31:35.6 7:54/M
9 Jonathan Yankee Trenton MI 16 74 33:14.6 8:19/M
10 Gary Brownell Woodhaven MI 10 77 33:38.3 8:25/M
11 Scott Crowder Clinton MI 13 78 33:51.8 8:28/M
12 Matt Matetich Monroe MI 16 84 34:17.5 8:34/M


Men 20 to 29

Place Name City Age Overall Time Pace
1 Jay Steele Wyandotte MI 29 3 22:36.4 5:39/M
2 Dan Burke Perrysburg OH 26 10 25:28.0 6:22/M
3 Dave Burke Woodhaven MI 29 29 28:24.0 7:06/M
4 Chris Tanguay Riverview MI 27 30 28:31.9 7:08/M
5 Jeff Tanguay Southgate MI 25 31 28:36.6 7:09/M
6 Justin Peer Trenton MI 25 58 32:08.1 8:02/M
7 Dennis Webb Southgate MI 25 76 33:25.5 8:21/M
8 Rob Sawyer Trenton MI 29 79 33:53.8 8:28/M
9 James Tuardesky Flat Rock MI 20 89 34:28.0 8:37/M
10 Robert Foley Clawson MI 29 93 34:43.0 8:41/M


Men 30 to 34

Place Name City Age Overall Time Pace
1 Shawn Salliotte Wyandotte MI 31 6 24:01.3 6:00/M
2 Matthew Hiltz Fraser MI 33 28 28:07.8 7:02/M
3 Tullio Liberati Melvindale MI 32 109 36:10.5 9:03/M


Men 35 to 39

Place Name City Age Overall Time Pace
1 Rick Shapic Naples FL 36 2 21:54.0 5:29/M
2 Tom Yates New Boston MI 39 4 22:46.4 5:42/M
3 Kevin Sherwood Royal Oak MI 38 17 26:37.3 6:39/M
4 Paul Haworth Windsor ON 39 20 27:15.5 6:49/M
5 Brian Gauthier Allen Park MI 39 22 27:18.8 6:50/M
6 Kevin Wolff Novi MI 38 23 27:23.6 6:51/M
7 Patrick Phillips Woodhaven MI 39 37 29:12.6 7:18/M
8 Daniel Dunn Trenton MI 38 52 31:18.2 7:50/M
9 Keith King Grosse Ile MI 35 61 32:14.6 8:04/M
10 Mike Feryok Trenton MI 39 81 33:58.3 8:30/M
11 Ralph Jones Brownstown MI 39 112 36:42.0 9:11/M
12 Paolo Sansalvadore W Bloomfield MI 38 117 37:10.9 9:18/M
13 Tim Kolling Dearborn Heights M 39 142 40:20.5 10:05/M


Men 40 to 44

Place Name City Age Overall Time Pace
1 Ken Pastor Allen Park MI 42 18 27:11.8 6:48/M
2 John Mason Flat Rock MI 43 26 27:55.6 6:59/M
3 Tim Mccart Southgate MI 43 33 28:43.9 7:11/M
4 James Parker Woodhaven MI 42 34 28:49.5 7:12/M
5 Gene Funds Brownstown MI 42 41 29:35.1 7:24/M
6 Gary Robinson Trenton MI 44 54 31:47.8 7:57/M
7 James Tritt Rockwood MI 44 57 32:05.9 8:01/M
8 Jerome Solomon Livonia MI 44 59 32:09.8 8:02/M
9 Mohamed Redissi Ann Arbor MI 43 62 32:16.6 8:04/M
10 Rick Saenz Monroe MI 42 64 32:27.1 8:07/M
11 Jim Szyskowski Temperance MI 43 88 34:26.7 8:37/M


Men 45 to 49

Place Name City Age Overall Time Pace
1 Gene Zimmerman Riverview MI 47 8 25:04.4 6:16/M
2 George Lassiter Novi MI 47 14 26:07.7 6:32/M
3 Rick Guardiola Flat Rock MI 45 16 26:27.4 6:37/M
4 Dave Crowder Clinton MI 48 25 27:50.4 6:58/M
5 Mark Johnson Brownstown MI 49 44 29:43.5 7:26/M
6 Al Gonano Grosse Ile MI 48 47 30:03.9 7:31/M
7 John Ripple Carleton MI 48 55 31:56.9 7:59/M
8 Jim Everlove Troy MI 46 63 32:19.0 8:05/M
9 John Pawlukiewicz Flat Rock MI 49 65 32:29.6 8:07/M
10 Kurt Krantz Woodhaven MI 47 68 32:43.1 8:11/M
11 Greg Campbell Woodhaven MI 46 85 34:24.1 8:36/M
12 Bob Boomer Erie MI 47 90 34:31.7 8:38/M
13 Tom Jackowski Ann Arbor MI 45 118 37:22.9 9:21/M
14 Arthur Beaudrie Canton MI 49 123 37:43.2 9:26/M
15 Thomas Powell Detroit MI 47 133 39:02.3 9:46/M
16 Mike Tuardesky Flat Rock MI 47 144 41:03.0 10:16/M
17 Duane Wegienka Brownstown MI 45 154 44:17.3 11:04/M
18 Michael Moore Roseville MI 49 158 47:32.4 11:53/M


Men 50 to 54

Place Name City Age Overall Time Pace
1 Paul Deladurantaye Riverview MI 54 5 22:52.6 5:43/M
2 Rob Fisher Southgate MI 50 9 25:12.2 6:18/M
3 Tim Laporte Riverview MI 53 11 25:51.0 6:28/M
4 Gavin Williams Detroit MI 54 24 27:33.0 6:53/M
5 Jerry Steele Wyandotte MI 53 32 28:38.4 7:10/M
6 Gene Stephens Wyandotte MI 50 40 29:27.8 7:22/M
7 George Buttigieg Woodhaven MI 52 43 29:39.5 7:25/M
8 Norman Bresinski Trenton MI 52 71 33:08.5 8:17/M
9 Jim Coyne Monroe MI 52 98 35:24.5 8:51/M
10 Rico Reaume Woodhaven MI 51 107 36:01.4 9:00/M
11 David Gartside Allen Park MI 52 121 37:36.9 9:24/M
12 Jack Green Inkster MI 51 159 47:33.0 11:53/M


Men 55 to 59

Place Name City Age Overall Time Pace
1 Cyril Steinhauser Lasalle MI 59 91 34:32.6 8:38/M
2 Archie Pollard Detroit MI 58 97 35:20.0 8:50/M
3 Giorgio Donini Novi MI 56 114 36:44.3 9:11/M
4 Tom Waligorski Dearborn Heights M 57 126 37:57.6 9:29/M
5 Harry Taylor Grosse Ile MI 56 129 38:16.5 9:34/M
6 Fernando Joaquin Taylor MI 55 134 39:11.4 9:48/M


Men 60 to 64

Place Name City Age Overall Time Pace
1 David Lee Southgate MI 63 27 28:01.4 7:00/M
2 Daniel Hendren Taylor MI 60 35 28:56.3 7:14/M
3 Richard Litzler Bloomfield Hills M 61 38 29:13.6 7:18/M
4 Ed Torrance Saline MI 63 72 33:12.5 8:18/M
5 Rollie Hopgood Taylor MI 61 141 40:17.6 10:04/M


Men 65 to 69

Place Name City Age Overall Time Pace
1 Eugene Keyandwy Dearborn Heights M 66 66 32:30.9 8:08/M
2 Harrison Hensley Pinckney MI 68 96 35:18.3 8:50/M